createdAt,value
2022-10-09T00:03:57.577Z,2.65
2022-10-09T00:07:59.535Z,2.55
2022-10-09T00:12:01.424Z,2.22
2022-10-09T00:16:05.791Z,2.00
2022-10-09T00:20:08.010Z,2.17
2022-10-09T00:24:09.949Z,2.00
2022-10-09T00:28:11.799Z,1.90
2022-10-09T00:32:13.556Z,2.10
2022-10-09T00:36:18.296Z,2.25
2022-10-09T00:40:21.811Z,1.95
2022-10-09T00:44:45.368Z,2.20
2022-10-09T00:48:54.011Z,2.08
2022-10-09T00:53:00.038Z,2.50
2022-10-09T00:57:02.364Z,2.25
2022-10-09T01:01:04.347Z,2.10
2022-10-09T01:05:08.196Z,2.63
2022-10-09T01:09:42.477Z,2.15
2022-10-09T01:13:51.813Z,2.28
2022-10-09T01:18:03.990Z,2.10
2022-10-09T01:22:43.130Z,2.28
2022-10-09T01:26:47.663Z,1.85
2022-10-09T01:30:49.850Z,2.00
2022-10-09T01:34:53.717Z,1.77
2022-10-09T01:38:58.779Z,1.63
2022-10-09T01:43:01.337Z,1.90
2022-10-09T01:47:04.557Z,1.60
2022-10-09T01:51:06.530Z,2.10
2022-10-09T01:55:20.467Z,1.80
2022-10-09T01:59:24.080Z,1.55
2022-10-09T02:03:27.357Z,1.98
2022-10-09T02:07:31.309Z,2.20
2022-10-09T02:11:34.782Z,2.17
2022-10-09T02:16:00.830Z,1.80
2022-10-09T02:20:21.266Z,1.83
2022-10-09T02:24:24.537Z,1.83
2022-10-09T02:28:26.460Z,1.90
2022-10-09T02:32:28.866Z,2.72
2022-10-09T02:36:31.556Z,2.33
2022-10-09T02:40:33.384Z,2.03
2022-10-09T02:44:35.363Z,2.10
2022-10-09T02:48:37.067Z,1.65
2022-10-09T02:52:38.889Z,2.10
2022-10-09T02:56:40.748Z,1.88
2022-10-09T03:00:42.584Z,1.88
2022-10-09T03:04:44.390Z,1.67
2022-10-09T03:08:48.466Z,2.00
2022-10-09T03:12:50.580Z,2.10
2022-10-09T03:16:52.614Z,1.80
2022-10-09T03:20:54.481Z,1.60
2022-10-09T03:24:56.574Z,1.42
2022-10-09T03:28:58.533Z,1.58
2022-10-09T03:33:00.393Z,1.85
2022-10-09T03:37:02.178Z,2.03
2022-10-09T03:41:05.575Z,1.73
2022-10-09T03:45:08.001Z,1.60
2022-10-09T03:49:10.055Z,1.88
2022-10-09T03:53:13.210Z,1.80
2022-10-09T03:57:15.734Z,1.67
2022-10-09T04:01:17.710Z,1.83
2022-10-09T04:05:19.705Z,2.88
2022-10-09T04:09:21.607Z,3.60
2022-10-09T04:13:23.484Z,2.10
2022-10-09T04:17:25.312Z,1.80
2022-10-09T04:21:27.207Z,1.70
2022-10-09T04:25:29.378Z,2.00
2022-10-09T04:29:31.206Z,1.60
2022-10-09T04:33:32.991Z,1.70
2022-10-09T04:37:36.711Z,2.45
2022-10-09T04:41:38.691Z,2.42
2022-10-09T04:45:41.227Z,1.83
2022-10-09T04:49:43.132Z,3.03
2022-10-09T04:53:45.676Z,1.90
2022-10-09T04:57:47.538Z,1.80
2022-10-09T05:01:49.435Z,1.80
2022-10-09T05:05:51.539Z,1.80
2022-10-09T05:09:53.366Z,1.85
2022-10-09T05:13:57.828Z,1.60
2022-10-09T05:17:59.576Z,1.73
2022-10-09T05:22:01.343Z,1.90
2022-10-09T05:26:06.503Z,1.95
2022-10-09T05:30:09.116Z,1.83
2022-10-09T05:34:10.908Z,1.90
2022-10-09T05:38:12.599Z,1.80
2022-10-09T05:42:14.370Z,1.90
2022-10-09T05:46:23.431Z,1.60
2022-10-09T05:50:25.240Z,1.60
2022-10-09T05:54:27.395Z,1.50
2022-10-09T05:58:29.180Z,1.35
2022-10-09T06:02:30.999Z,1.50
2022-10-09T06:06:36.588Z,1.52
2022-10-09T06:10:38.321Z,1.50
2022-10-09T06:14:40.037Z,1.67
2022-10-09T06:18:48.128Z,1.70
2022-10-09T06:22:51.597Z,1.50
2022-10-09T06:26:53.578Z,1.70
2022-10-09T06:31:01.838Z,1.58
2022-10-09T06:35:03.771Z,1.70
2022-10-09T06:39:07.300Z,1.60
2022-10-09T06:43:09.183Z,1.55
2022-10-09T06:47:11.058Z,1.48
2022-10-09T06:51:21.855Z,1.58
2022-10-09T06:55:28.505Z,2.53
2022-10-09T06:59:30.700Z,2.10
2022-10-09T07:03:33.876Z,2.50
2022-10-09T07:07:40.217Z,3.00
2022-10-09T07:11:44.898Z,2.25
2022-10-09T07:15:46.688Z,3.17
2022-10-09T07:19:49.194Z,2.28
2022-10-09T07:23:51.156Z,2.42
2022-10-09T07:27:53.017Z,2.25
2022-10-09T07:31:54.766Z,2.20
2022-10-09T07:35:58.147Z,2.15
2022-10-09T07:39:59.892Z,1.67
2022-10-09T07:44:01.859Z,1.52
2022-10-09T07:48:03.773Z,2.10
2022-10-09T07:52:05.656Z,1.30
2022-10-09T07:56:07.607Z,1.80
2022-10-09T08:00:10.142Z,1.65
2022-10-09T08:04:14.183Z,2.08
2022-10-09T08:08:15.989Z,1.65
2022-10-09T08:12:17.804Z,1.40
2022-10-09T08:16:20.863Z,1.98
2022-10-09T08:20:23.877Z,1.77
2022-10-09T08:24:25.745Z,3.00
2022-10-09T08:28:27.752Z,1.55
2022-10-09T08:32:29.491Z,1.90
2022-10-09T08:36:32.243Z,1.92
2022-10-09T08:41:00.404Z,1.80
2022-10-09T08:45:02.988Z,1.80
2022-10-09T08:49:05.479Z,2.10
2022-10-09T08:53:25.785Z,2.53
2022-10-09T08:57:32.610Z,1.95
2022-10-09T09:01:52.575Z,2.47
2022-10-09T09:06:11.572Z,2.40
2022-10-09T09:10:20.285Z,2.50
2022-10-09T09:14:30.890Z,2.20
2022-10-09T09:18:48.938Z,2.03
2022-10-09T09:22:51.183Z,2.10
2022-10-09T09:26:59.369Z,2.38
2022-10-09T09:31:23.973Z,2.22
2022-10-09T09:35:49.709Z,3.13
2022-10-09T09:40:34.972Z,1.85
2022-10-09T09:44:16.711Z,2.05
2022-10-09T09:48:36.801Z,1.70
2022-10-09T09:52:46.188Z,1.90
2022-10-09T10:01:22.002Z,1.85
2022-10-09T10:05:27.315Z,1.60
2022-10-09T10:09:29.135Z,1.40
2022-10-09T10:13:38.209Z,1.38
2022-10-09T10:17:40.075Z,1.30
2022-10-09T10:21:55.485Z,1.20
2022-10-09T10:25:59.024Z,1.27
2022-10-09T10:30:04.952Z,1.15
2022-10-09T10:34:16.877Z,1.50
2022-10-09T10:38:58.019Z,1.20
2022-10-09T10:43:53.825Z,0.90
2022-10-09T10:47:58.472Z,1.20
2022-10-09T10:52:12.029Z,1.30
2022-10-09T10:56:28.529Z,1.10
2022-10-09T11:00:34.440Z,1.10
2022-10-09T11:05:00.662Z,0.98
2022-10-09T11:09:23.943Z,1.40
2022-10-09T11:13:49.132Z,1.17
2022-10-09T11:18:24.475Z,1.02
2022-10-09T11:22:35.301Z,1.05
2022-10-09T11:26:50.050Z,1.10
2022-10-09T11:30:59.710Z,1.00
2022-10-09T11:35:12.606Z,1.00
2022-10-09T11:39:23.718Z,0.90
2022-10-09T11:43:25.437Z,1.00
2022-10-09T11:48:02.643Z,0.75
2022-10-09T11:52:23.770Z,0.90
2022-10-09T11:56:30.651Z,0.80
2022-10-09T12:00:36.038Z,1.10
2022-10-09T12:04:53.833Z,0.95
2022-10-09T12:09:01.189Z,1.40
2022-10-09T12:13:06.833Z,1.15
2022-10-09T12:17:35.398Z,1.02
2022-10-09T12:21:45.785Z,0.90
2022-10-09T12:25:48.275Z,1.00
2022-10-09T12:30:15.157Z,1.10
2022-10-09T12:34:23.020Z,0.93
2022-10-09T12:38:28.475Z,0.70
2022-10-09T12:46:39.322Z,0.80
2022-10-09T12:50:41.281Z,1.20
2022-10-09T12:54:45.045Z,1.17
2022-10-09T12:58:47.275Z,0.90
2022-10-09T13:02:49.485Z,0.88
2022-10-09T13:06:52.960Z,0.90
2022-10-09T13:10:55.665Z,0.80
2022-10-09T13:15:03.422Z,1.10
2022-10-09T13:19:30.083Z,1.05
2022-10-09T13:23:34.876Z,0.90
2022-10-09T13:27:39.321Z,0.90
2022-10-09T13:31:44.063Z,1.00
2022-10-09T13:35:46.508Z,1.00
2022-10-09T13:39:48.320Z,1.00
2022-10-09T13:43:53.339Z,0.85
2022-10-09T13:47:55.118Z,1.00
2022-10-09T13:51:57.076Z,1.50
2022-10-09T13:56:01.028Z,0.90
2022-10-09T14:00:04.811Z,1.20
2022-10-09T14:04:13.871Z,1.00
2022-10-09T14:08:15.776Z,0.98
2022-10-09T14:12:17.609Z,0.95
2022-10-09T14:16:19.402Z,0.77
2022-10-09T14:20:21.335Z,1.05
2022-10-09T14:24:24.061Z,1.73
2022-10-09T14:28:26.020Z,1.10
2022-10-09T14:32:27.836Z,1.00
2022-10-09T14:36:29.984Z,1.10
2022-10-09T14:40:31.750Z,1.20
2022-10-09T14:44:33.549Z,0.98
2022-10-09T14:48:35.842Z,1.48
2022-10-09T14:52:37.555Z,1.00
2022-10-09T14:56:39.819Z,1.15
2022-10-09T15:00:46.939Z,1.20
2022-10-09T15:04:48.811Z,1.30
2022-10-09T15:09:04.556Z,1.40
2022-10-09T15:13:07.669Z,1.30
2022-10-09T15:17:09.582Z,1.10
2022-10-09T15:21:18.055Z,1.52
2022-10-09T15:25:19.933Z,1.10
2022-10-09T15:29:21.915Z,1.30
2022-10-09T15:33:24.092Z,1.15
2022-10-09T15:37:25.938Z,1.30
2022-10-09T15:41:31.908Z,1.20
2022-10-09T15:45:35.039Z,1.10
2022-10-09T15:49:36.853Z,1.20
2022-10-09T15:53:38.794Z,1.20
2022-10-09T15:57:40.677Z,1.27
2022-10-09T16:01:43.280Z,1.25
2022-10-09T16:05:48.767Z,1.05
2022-10-09T16:09:50.690Z,1.33
2022-10-09T16:13:53.209Z,1.30
2022-10-09T16:17:55.008Z,1.35
2022-10-09T16:21:56.824Z,1.17
2022-10-09T16:26:00.698Z,0.98
2022-10-09T16:30:05.145Z,1.60
2022-10-09T16:34:07.515Z,1.50
2022-10-09T16:38:09.350Z,1.40
2022-10-09T16:42:11.202Z,1.15
2022-10-09T16:46:18.026Z,1.30
2022-10-09T16:50:19.943Z,1.50
2022-10-09T16:54:21.739Z,1.40
2022-10-09T16:58:23.483Z,1.90
2022-10-09T17:02:25.733Z,1.40
2022-10-09T17:06:27.980Z,1.70
2022-10-09T17:10:29.833Z,1.73
2022-10-09T17:14:31.759Z,1.40
2022-10-09T17:18:34.315Z,1.45
2022-10-09T17:22:36.193Z,1.60
2022-10-09T17:26:37.937Z,1.33
2022-10-09T17:30:40.866Z,1.25
2022-10-09T17:34:45.840Z,1.63
2022-10-09T17:38:49.446Z,1.33
2022-10-09T17:42:51.506Z,1.40
2022-10-09T17:46:53.872Z,1.13
2022-10-09T17:50:57.895Z,1.52
2022-10-09T17:54:59.695Z,1.73
2022-10-09T17:59:02.027Z,1.10
2022-10-09T18:03:04.091Z,1.85
2022-10-09T18:07:05.873Z,1.75
2022-10-09T18:11:11.626Z,1.70
2022-10-09T18:15:14.125Z,1.02
2022-10-09T18:19:20.376Z,1.40
2022-10-09T18:23:22.959Z,1.20
2022-10-09T18:27:24.855Z,0.98
2022-10-09T18:31:27.272Z,1.17
2022-10-09T18:35:30.365Z,1.20
2022-10-09T18:39:32.432Z,3.97
2022-10-09T18:43:34.283Z,7.55
2022-10-09T18:47:37.226Z,3.30
2022-10-09T18:51:42.138Z,2.00
2022-10-09T18:55:44.674Z,1.35
2022-10-09T18:59:47.405Z,1.00
2022-10-09T19:03:50.382Z,1.00
2022-10-09T19:07:52.636Z,1.00
2022-10-09T19:11:54.705Z,0.98
2022-10-09T19:16:00.923Z,0.85
2022-10-09T19:20:02.898Z,1.00
2022-10-09T19:24:06.990Z,1.40
2022-10-09T19:28:08.772Z,0.80
2022-10-09T19:32:10.567Z,0.82
2022-10-09T19:36:13.708Z,0.82
2022-10-09T19:40:15.595Z,0.82
2022-10-09T19:44:17.730Z,0.90
2022-10-09T19:48:20.473Z,0.80
2022-10-09T19:52:23.247Z,0.80
2022-10-09T19:56:29.516Z,0.80
2022-10-09T20:00:31.365Z,0.80
2022-10-09T20:04:33.244Z,0.80
2022-10-09T20:08:36.727Z,0.80
2022-10-09T20:12:38.511Z,0.90
2022-10-09T20:16:40.459Z,0.70
2022-10-09T20:20:46.793Z,0.90
2022-10-09T20:24:48.634Z,0.80
2022-10-09T20:28:53.856Z,0.90
2022-10-09T20:32:59.197Z,0.90
2022-10-09T20:37:01.284Z,1.00
2022-10-09T20:41:06.623Z,1.00
2022-10-09T20:45:08.892Z,1.13
2022-10-09T20:49:13.210Z,1.50
2022-10-09T20:53:16.735Z,1.48
2022-10-09T20:57:18.561Z,1.17
2022-10-09T21:01:21.070Z,1.08
2022-10-09T21:05:22.924Z,0.93
2022-10-09T21:09:27.479Z,0.93
2022-10-09T21:13:31.457Z,0.90
2022-10-09T21:17:33.602Z,1.08
2022-10-09T21:21:35.597Z,1.20
2022-10-09T21:25:38.254Z,1.20
2022-10-09T21:29:40.022Z,1.00
2022-10-09T21:33:41.843Z,1.30
2022-10-09T21:37:43.971Z,1.15
2022-10-09T21:41:45.915Z,1.20
2022-10-09T21:45:50.373Z,1.13
2022-10-09T21:49:52.272Z,1.10
2022-10-09T21:53:54.804Z,1.30
2022-10-09T21:57:57.229Z,1.10
2022-10-09T22:01:59.252Z,1.10
2022-10-09T22:06:05.611Z,1.00
2022-10-09T22:10:07.808Z,0.90
2022-10-09T22:14:09.676Z,1.10
2022-10-09T22:18:11.995Z,1.10
2022-10-09T22:22:13.933Z,1.40
2022-10-09T22:26:19.313Z,1.92
2022-10-09T22:30:21.166Z,1.90
2022-10-09T22:34:23.034Z,1.50
2022-10-09T22:38:24.813Z,1.95
2022-10-09T22:42:26.684Z,1.90
2022-10-09T22:46:37.677Z,1.85
2022-10-09T22:50:39.622Z,1.50
2022-10-09T22:54:41.557Z,1.50
2022-10-09T22:58:44.211Z,1.48
2022-10-09T23:02:46.031Z,1.10
2022-10-09T23:06:53.976Z,1.00
2022-10-09T23:10:55.793Z,1.20
2022-10-09T23:14:57.818Z,1.10
2022-10-09T23:19:06.081Z,1.50
2022-10-09T23:23:08.642Z,1.80
2022-10-09T23:27:10.364Z,1.42
2022-10-09T23:31:14.548Z,1.70
2022-10-09T23:35:16.391Z,1.90
2022-10-09T23:39:18.322Z,1.60
2022-10-09T23:43:20.200Z,1.90
2022-10-09T23:47:22.088Z,1.90
2022-10-09T23:51:25.629Z,2.30
2022-10-09T23:55:27.458Z,2.20
2022-10-09T23:59:29.249Z,2.10
